Time;durP1;ratioP1;P1;durP2;ratioP2;P2;SDS_P1;SDS_P2;PMS_P1;PMS_P2;Temp;Humidity;BMP_temperature;BMP_pressure;BME280_temperature;BME280_humidity;BME280_pressure;Samples;Min_cycle;Max_cycle;Signal;HPM_P1;HPM_P2
2021/01/13 05:24:19;;;;;;;18.90;13.53;;;;;;;-1.90;75.16;98369.28;1810834;77;22624;-65
2021/01/13 05:27:02;;;;;;;18.37;12.07;;;;;;;-1.91;75.02;98375.23;1776361;80;21141;-65
2021/01/13 05:29:39;;;;;;;;;;;;;;;-1.86;75.09;98370.95;1773366;81;21365;-66
2021/01/13 05:32:07;;;;;;;20.70;14.70;;;;;;;-1.82;74.99;98369.64;1770199;81;20484;-65
2021/01/13 05:34:36;;;;;;;15.53;10.75;;;;;;;-1.80;75.09;98364.07;1770745;81;21060;-65
2021/01/13 05:37:30;;;;;;;14.30;10.28;;;;;;;-1.71;74.93;98367.40;1770643;81;21056;-66
2021/01/13 05:40:00;;;;;;;19.23;11.15;;;;;;;-1.65;74.81;98366.07;1738789;80;21151;-65
2021/01/13 05:42:28;;;;;;;17.20;11.70;;;;;;;-1.64;74.74;98364.78;1770661;81;21399;-65
2021/01/13 05:44:56;;;;;;;14.33;10.80;;;;;;;-1.61;74.85;98365.19;1770628;81;21563;-66
2021/01/13 05:47:55;;;;;;;14.83;11.03;;;;;;;-1.57;74.76;98365.54;1744619;81;21072;-66
2021/01/13 05:50:23;;;;;;;16.80;11.88;;;;;;;-1.49;74.62;98363.77;1739997;82;21068;-65
2021/01/13 05:52:54;;;;;;;29.40;19.00;;;;;;;-1.41;74.26;98364.11;1740059;82;21059;-63
2021/01/13 05:55:24;;;;;;;128.87;45.93;;;;;;;-1.37;74.18;98362.77;1722123;82;21389;-64
2021/01/13 05:58:00;;;;;;;102.10;39.40;;;;;;;-1.35;74.17;98366.15;1743855;81;21075;-68
2021/01/13 06:00:32;;;;;;;219.90;115.12;;;;;;;-1.32;73.94;98368.67;1750346;81;21112;-68
2021/01/13 06:03:04;;;;;;;57.43;35.58;;;;;;;-1.33;74.03;98378.03;1739079;82;21158;-69
2021/01/13 06:05:34;;;;;;;27.02;19.27;;;;;;;-1.29;74.03;98367.36;1709552;82;21048;-64
2021/01/13 06:08:05;;;;;;;46.70;28.10;;;;;;;-1.23;73.88;98367.30;1707700;82;21418;-67
2021/01/13 06:10:35;;;;;;;27.15;18.60;;;;;;;-1.17;73.63;98371.88;1691689;84;21517;-67
2021/01/13 06:13:05;;;;;;;42.35;31.17;;;;;;;-1.13;73.48;98363.76;1710434;84;21068;-68
2021/01/13 06:15:34;;;;;;;19.77;14.38;;;;;;;-1.14;73.48;98358.23;1695243;82;21146;-69
2021/01/13 06:18:03;;;;;;;20.23;14.23;;;;;;;-1.12;73.49;98362.89;1731061;82;21061;-68
2021/01/13 06:20:31;;;;;;;22.98;15.58;;;;;;;-1.15;73.26;98361.66;1731091;83;21200;-67
2021/01/13 06:23:00;;;;;;;20.92;16.62;;;;;;;-1.22;73.53;98352.41;1730574;82;21151;-70
2021/01/13 06:25:30;;;;;;;20.05;14.80;;;;;;;-1.23;73.78;98351.56;1732449;82;21116;-67
2021/01/13 06:28:20;;;;;;;20.43;14.73;;;;;;;-1.18;73.74;98349.77;1738373;82;21587;-67
2021/01/13 06:30:48;;;;;;;21.40;13.45;;;;;;;-1.16;73.74;98355.70;1738335;82;21556;-65
2021/01/13 06:33:25;;;;;;;19.42;13.50;;;;;;;-1.20;73.54;98365.53;1713972;82;21428;-66
2021/01/13 06:36:23;;;;;;;20.80;14.15;;;;;;;-1.28;73.49;98370.33;1737158;82;21100;-67
2021/01/13 06:39:00;;;;;;;21.05;15.70;;;;;;;-1.36;73.70;98369.13;1737587;82;21578;-65
2021/01/13 06:41:28;;;;;;;23.18;15.32;;;;;;;-1.36;74.04;98366.58;1737575;82;21108;-62
2021/01/13 06:44:06;;;;;;;18.95;14.35;;;;;;;-1.39;73.89;98361.08;1737599;82;21552;-65
2021/01/13 06:46:35;;;;;;;26.17;15.95;;;;;;;-1.37;73.89;98367.44;1737423;82;21369;-66
2021/01/13 06:49:20;;;;;;;33.38;24.25;;;;;;;-1.35;73.97;98361.05;1737643;82;21080;-64
2021/01/13 06:51:50;;;;;;;25.27;16.55;;;;;;;-1.35;73.83;98355.95;1736930;82;21152;-65
2021/01/13 06:54:19;;;;;;;52.93;33.13;;;;;;;-1.33;73.80;98360.17;1737166;81;21588;-63
2021/01/13 06:56:51;;;;;;;23.52;17.60;;;;;;;-1.27;73.84;98360.11;1739294;82;21122;-65
2021/01/13 06:59:22;;;;;;;25.12;19.12;;;;;;;-1.22;73.72;98354.95;1739309;82;21440;-65
2021/01/13 07:01:54;;;;;;;34.33;25.60;;;;;;;-1.26;73.55;98362.23;1739088;82;21512;-64
2021/01/13 07:04:23;;;;;;;23.20;15.95;;;;;;;-1.24;73.72;98365.17;1739414;82;21063;-65
2021/01/13 07:07:06;;;;;;;22.58;16.75;;;;;;;-1.15;73.75;98356.12;1738598;82;21239;-68
2021/01/13 07:09:44;;;;;;;30.88;19.15;;;;;;;-1.06;73.62;98354.73;1739095;81;21163;-68
2021/01/13 07:12:26;;;;;;;22.70;15.05;;;;;;;-0.95;73.53;98356.30;1739236;82;21178;-68
2021/01/13 07:14:56;;;;;;;22.42;15.70;;;;;;;-0.88;73.11;98355.36;1739085;82;21219;-71
2021/01/13 07:17:26;;;;;;;21.57;15.43;;;;;;;-0.92;73.01;98357.53;1700535;84;21147;-69
2021/01/13 07:19:56;;;;;;;25.12;16.62;;;;;;;-0.97;73.13;98362.69;1739272;81;21088;-72
2021/01/13 07:22:25;;;;;;;21.07;15.72;;;;;;;-1.03;73.15;98357.69;1738825;82;21260;-69
2021/01/13 07:24:55;;;;;;;18.92;14.38;;;;;;;-1.07;73.26;98362.41;1698926;84;22191;-71
2021/01/13 07:27:24;;;;;;;20.10;15.72;;;;;;;-1.11;73.40;98359.05;1668674;85;21199;-68
2021/01/13 07:29:53;;;;;;;21.00;15.72;;;;;;;-1.16;73.82;98353.16;1702527;82;21088;-69
2021/01/13 07:32:25;;;;;;;22.93;15.38;;;;;;;-1.15;74.01;98348.89;1708437;82;21080;-70
2021/01/13 07:34:54;;;;;;;24.17;17.30;;;;;;;-1.11;74.15;98344.17;1697973;82;21201;-71
2021/01/13 07:37:24;;;;;;;27.45;16.42;;;;;;;-1.09;74.24;98336.91;1682032;84;21555;-70
2021/01/13 07:40:28;;;;;;;26.15;17.70;;;;;;;-0.99;74.20;98332.52;1688141;84;21209;-70
2021/01/13 07:43:05;;;;;;;22.42;16.65;;;;;;;-0.90;73.73;98326.45;1688397;82;21154;-64
2021/01/13 07:45:45;;;;;;;23.38;17.67;;;;;;;-0.88;73.34;98322.17;1682764;84;21188;-66
2021/01/13 07:48:32;;;;;;;22.00;15.85;;;;;;;-0.86;73.34;98326.83;1700281;84;21198;-64
2021/01/13 07:51:08;;;;;;;29.12;17.57;;;;;;;-0.83;72.86;98327.64;1702545;83;21217;-65
2021/01/13 07:53:38;;;;;;;29.05;17.17;;;;;;;-0.89;72.62;98324.31;1701778;84;21047;-65
2021/01/13 07:56:10;;;;;;;26.20;18.40;;;;;;;-0.97;72.85;98322.29;1701966;83;21696;-65
2021/01/13 07:58:37;;;;;;;23.27;17.32;;;;;;;-0.98;73.04;98323.16;1702968;84;21636;-64
2021/01/13 08:01:42;;;;;;;27.35;17.62;;;;;;;-0.97;73.11;98324.84;1656685;84;21243;-65
2021/01/13 08:04:53;;;;;;;27.47;17.93;;;;;;;-0.93;73.32;98317.56;1702782;84;21253;-65
2021/01/13 08:07:40;;;;;;;33.67;22.27;;;;;;;-0.88;73.41;98315.80;1702923;84;21919;-65
2021/01/13 08:10:13;;;;;;;26.93;16.87;;;;;;;-0.83;73.05;98305.94;1701318;84;21115;-66
2021/01/13 08:13:02;;;;;;;27.22;17.95;;;;;;;-0.77;72.58;98303.27;1703472;82;21480;-64
2021/01/13 08:16:07;;;;;;;23.87;17.45;;;;;;;-0.81;72.07;98300.38;1703344;84;21134;-65
2021/01/13 08:19:15;;;;;;;27.67;19.40;;;;;;;-0.90;72.11;98296.67;1703394;84;21376;-65
2021/01/13 08:21:58;;;;;;;25.77;18.95;;;;;;;-0.98;72.10;98284.88;1703305;84;21932;-64
2021/01/13 08:24:31;;;;;;;29.15;20.02;;;;;;;-0.99;72.54;98287.01;1707213;83;21087;-64
2021/01/13 08:27:01;;;;;;;31.90;19.73;;;;;;;-0.94;72.61;98280.14;1708237;83;21174;-66
2021/01/13 08:29:39;;;;;;;32.65;21.02;;;;;;;-0.85;72.32;98281.30;1711810;83;21106;-63
2021/01/13 08:32:10;;;;;;;30.80;20.52;;;;;;;-0.80;72.38;98279.53;1711583;83;22125;-64
2021/01/13 08:34:44;;;;;;;27.02;19.02;;;;;;;-0.74;71.76;98280.69;1711412;82;21138;-65
2021/01/13 08:37:13;;;;;;;28.47;20.08;;;;;;;-0.74;71.65;98277.70;1711517;82;21273;-64
2021/01/13 08:39:44;;;;;;;22.58;16.60;;;;;;;-0.71;71.89;98273.83;1711558;83;21126;-64
2021/01/13 08:42:26;;;;;;;26.40;17.42;;;;;;;-0.61;71.74;98269.44;1711387;82;21126;-67
2021/01/13 08:44:54;;;;;;;26.40;16.97;;;;;;;-0.55;71.24;98258.25;1711307;82;21213;-66
2021/01/13 08:47:24;;;;;;;27.85;17.98;;;;;;;-0.51;70.96;98259.89;1710163;82;21292;-66
2021/01/13 08:50:12;;;;;;;26.12;18.70;;;;;;;-0.48;71.02;98258.14;1693279;83;21220;-66
2021/01/13 08:52:48;;;;;;;30.35;18.45;;;;;;;-0.39;70.55;98253.30;1693294;83;21658;-66
2021/01/13 08:55:17;;;;;;;34.15;20.00;;;;;;;-0.37;70.55;98247.73;1709144;83;21146;-71
2021/01/13 08:57:53;;;;;;;35.15;23.20;;;;;;;-0.30;70.17;98244.20;1686675;83;22248;-63
2021/01/13 09:00:24;;;;;;;39.40;28.20;;;;;;;-0.20;70.06;98241.06;1682957;85;21102;-67
2021/01/13 09:03:10;;;;;;;23.62;17.48;;;;;;;-0.09;69.81;98245.53;1682883;84;21199;-65
2021/01/13 09:05:40;;;;;;;33.88;22.45;;;;;;;-0.04;69.19;98247.14;1683023;84;21538;-66
2021/01/13 09:08:11;;;;;;;41.92;25.17;;;;;;;-0.04;68.90;98246.30;1682903;84;21170;-65
2021/01/13 09:10:53;;;;;;;28.05;18.95;;;;;;;0.03;69.17;98238.06;1686242;83;21368;-65
2021/01/13 09:13:43;;;;;;;30.15;20.82;;;;;;;0.16;68.69;98231.42;1682169;84;21142;-66
2021/01/13 09:16:28;;;;;;;24.60;16.82;;;;;;;0.21;68.53;98231.31;1682707;84;21079;-65
2021/01/13 09:19:06;;;;;;;47.58;32.50;;;;;;;0.23;67.83;98227.01;1682805;84;21193;-66
2021/01/13 09:21:40;;;;;;;39.38;25.65;;;;;;;0.21;67.70;98224.91;1682947;85;21094;-65
2021/01/13 09:24:12;;;;;;;25.27;16.67;;;;;;;0.25;67.62;98216.31;1682783;84;21384;-66
2021/01/13 09:26:42;;;;;;;25.13;17.33;;;;;;;0.27;67.45;98215.85;1683019;85;21114;-66
2021/01/13 09:29:10;;;;;;;20.62;15.93;;;;;;;0.23;67.51;98215.06;1682856;84;21587;-65
2021/01/13 09:31:39;;;;;;;20.32;14.55;;;;;;;0.20;67.77;98206.64;1682959;84;21584;-65
2021/01/13 09:34:08;;;;;;;22.70;15.13;;;;;;;0.16;67.82;98207.13;1682962;84;21150;-64
2021/01/13 09:36:58;;;;;;;24.67;16.48;;;;;;;0.11;67.80;98197.86;1682922;84;21370;-65
2021/01/13 09:39:39;;;;;;;23.67;15.18;;;;;;;0.08;67.67;98188.53;1682908;84;21186;-64
2021/01/13 09:42:08;;;;;;;23.98;16.37;;;;;;;0.04;67.82;98186.91;1682582;85;21193;-65
2021/01/13 09:44:37;;;;;;;21.25;14.80;;;;;;;-0.02;67.75;98180.22;1682846;84;21174;-66
2021/01/13 09:47:24;;;;;;;20.70;15.25;;;;;;;-0.04;67.48;98178.56;1682958;85;21209;-65
2021/01/13 09:49:57;;;;;;;19.77;14.80;;;;;;;-0.11;67.48;98179.11;1682829;84;21157;-65
2021/01/13 09:52:25;;;;;;;25.43;15.05;;;;;;;-0.19;67.39;98166.91;1690945;83;21075;-65
2021/01/13 09:55:00;;;;;;;26.87;17.98;;;;;;;-0.25;67.55;98166.20;1711430;83;21761;-64
2021/01/13 09:57:28;;;;;;;;;;;;;;;-0.32;67.72;98163.34;1696320;83;21170;-65
2021/01/13 10:00:01;;;;;;;23.92;16.23;;;;;;;-0.35;67.98;98165.09;1711663;82;20558;-64
2021/01/13 10:02:31;;;;;;;31.07;20.55;;;;;;;-0.35;68.16;98158.70;1709792;83;21364;-67
2021/01/13 10:05:00;;;;;;;25.30;18.37;;;;;;;-0.38;68.32;98154.92;1711454;83;21091;-65
2021/01/13 10:07:33;;;;;;;25.25;19.02;;;;;;;-0.34;68.40;98153.16;1711536;82;21131;-66
2021/01/13 10:10:04;;;;;;;;;;;;;;;-0.31;68.38;98156.94;1714087;83;21090;-65
2021/01/13 10:12:41;;;;;;;26.02;17.40;;;;;;;-0.35;68.29;98150.19;1711806;83;20503;-66
2021/01/13 10:15:12;;;;;;;26.52;16.87;;;;;;;-0.35;68.40;98146.36;1711709;83;21380;-64
2021/01/13 10:17:41;;;;;;;25.82;17.42;;;;;;;-0.35;68.50;98145.08;1711658;83;21090;-66
2021/01/13 10:20:21;;;;;;;31.05;18.82;;;;;;;-0.35;68.11;98140.81;1711732;83;21081;-66
2021/01/13 10:22:49;;;;;;;24.77;17.10;;;;;;;-0.33;68.54;98145.05;1710419;82;21178;-67
2021/01/13 10:25:29;;;;;;;24.75;18.15;;;;;;;-0.30;68.49;98145.00;1711492;82;21126;-66
2021/01/13 10:28:01;;;;;;;26.87;17.48;;;;;;;-0.31;68.76;98139.05;1711736;82;21373;-64
2021/01/13 10:30:32;;;;;;;;;;;;;;;-0.26;68.76;98132.58;1714256;83;21511;-66
2021/01/13 10:33:03;;;;;;;23.05;15.50;;;;;;;-0.23;68.32;98125.70;1711643;82;20231;-64
2021/01/13 10:35:38;;;;;;;22.75;16.97;;;;;;;-0.25;68.73;98127.44;1711693;82;21086;-65
2021/01/13 10:38:07;;;;;;;21.73;15.53;;;;;;;-0.25;68.29;98117.66;1711716;83;21536;-66
2021/01/13 10:40:35;;;;;;;21.23;14.98;;;;;;;-0.27;68.32;98111.73;1711608;82;21213;-66
2021/01/13 10:43:04;;;;;;;24.98;14.80;;;;;;;-0.24;68.03;98107.41;1711357;83;21082;-65
2021/01/13 10:45:33;;;;;;;21.00;15.08;;;;;;;-0.29;67.57;98106.66;1662949;83;21536;-67
2021/01/13 10:48:02;;;;;;;22.45;16.40;;;;;;;-0.32;67.93;98105.86;1711574;83;21163;-66
2021/01/13 10:50:32;;;;;;;19.73;14.33;;;;;;;-0.31;68.09;98099.45;1711697;82;21051;-65
2021/01/13 10:53:01;;;;;;;19.32;14.45;;;;;;;-0.29;68.02;98098.14;1708328;82;21356;-64
2021/01/13 10:55:32;;;;;;;19.92;15.32;;;;;;;-0.30;67.80;98096.46;1711586;83;21103;-66
2021/01/13 10:58:00;;;;;;;19.40;14.87;;;;;;;-0.29;67.92;98093.88;1711723;83;21099;-66
2021/01/13 11:00:31;;;;;;;21.15;15.85;;;;;;;-0.22;68.14;98084.39;1663687;83;21087;-67
2021/01/13 11:03:02;;;;;;;20.30;14.73;;;;;;;-0.14;68.02;98077.39;1711715;82;21239;-66
2021/01/13 11:05:38;;;;;;;30.10;21.55;;;;;;;-0.15;68.02;98080.81;1711651;82;21212;-68
2021/01/13 11:08:06;;;;;;;34.95;21.85;;;;;;;-0.16;67.82;98086.80;1711521;83;21154;-67
2021/01/13 11:10:36;;;;;;;31.77;17.82;;;;;;;-0.20;67.77;98082.17;1711290;83;21129;-66
2021/01/13 11:13:05;;;;;;;40.23;22.20;;;;;;;-0.16;67.69;98076.14;1711624;83;21115;-63
2021/01/13 11:15:36;;;;;;;43.05;26.37;;;;;;;-0.14;67.45;98075.67;1711567;83;21220;-66
2021/01/13 11:18:09;;;;;;;51.65;28.75;;;;;;;-0.14;67.54;98071.00;1711391;83;21386;-65
2021/01/13 11:20:37;;;;;;;24.55;18.05;;;;;;;-0.16;67.52;98077.84;1685666;83;28164;-69
2021/01/13 11:23:07;;;;;;;24.65;17.75;;;;;;;-0.24;67.64;98074.63;1711521;82;21210;-72
2021/01/13 11:25:37;;;;;;;25.65;15.78;;;;;;;-0.29;67.84;98075.16;1698632;83;21236;-64
2021/01/13 11:28:13;;;;;;;22.75;15.40;;;;;;;-0.29;67.67;98076.00;1693904;84;21151;-65
2021/01/13 11:30:44;;;;;;;22.42;17.48;;;;;;;-0.29;67.71;98076.43;1693824;84;21655;-65
2021/01/13 11:33:14;;;;;;;22.55;16.82;;;;;;;-0.36;68.07;98072.71;1693908;84;21100;-65
2021/01/13 11:35:46;;;;;;;24.37;18.15;;;;;;;-0.32;68.38;98071.38;1693615;84;21199;-64
2021/01/13 11:38:44;;;;;;;24.72;17.05;;;;;;;-0.30;68.55;98067.08;1693640;83;21068;-65
2021/01/13 11:41:24;;;;;;;27.35;17.60;;;;;;;-0.29;68.76;98071.32;1694018;83;21076;-62
2021/01/13 11:44:10;;;;;;;24.98;18.42;;;;;;;-0.31;68.41;98072.63;1693792;84;21388;-64
2021/01/13 11:47:04;;;;;;;22.70;16.67;;;;;;;-0.38;68.64;98068.06;1693717;84;21170;-65
2021/01/13 11:49:44;;;;;;;23.18;15.50;;;;;;;-0.42;69.01;98073.30;1693929;83;21111;-65
2021/01/13 11:52:17;;;;;;;23.20;15.38;;;;;;;-0.47;69.07;98068.70;1693821;84;21091;-63
2021/01/13 11:54:49;;;;;;;27.98;18.35;;;;;;;-0.47;69.32;98063.59;1693979;84;21171;-65
2021/01/13 11:57:28;;;;;;;22.27;16.12;;;;;;;-0.48;69.54;98065.30;1693908;84;21568;-65
2021/01/13 12:00:19;;;;;;;22.82;16.67;;;;;;;-0.48;69.54;98056.80;1693810;83;21618;-66
2021/01/13 12:03:00;;;;;;;21.97;14.28;;;;;;;-0.48;69.76;98049.14;1693858;83;21143;-64
2021/01/13 12:05:36;;;;;;;22.58;15.40;;;;;;;-0.44;69.73;98049.49;1693808;83;21168;-66
2021/01/13 12:08:13;;;;;;;23.10;16.70;;;;;;;-0.43;69.77;98036.69;1693353;83;21487;-65
2021/01/13 12:10:50;;;;;;;24.10;17.52;;;;;;;-0.42;69.69;98030.71;1693350;83;21266;-64
2021/01/13 12:13:27;;;;;;;24.32;17.05;;;;;;;-0.39;69.84;98037.01;1693622;83;21167;-66
2021/01/13 12:16:01;;;;;;;34.18;21.05;;;;;;;-0.36;69.87;98032.28;1693840;84;21164;-64
2021/01/13 12:18:35;;;;;;;28.02;18.62;;;;;;;-0.35;69.51;98037.36;1694099;83;21567;-64
2021/01/13 12:21:17;;;;;;;31.17;18.92;;;;;;;-0.39;69.63;98031.90;1692914;83;21068;-64
2021/01/13 12:23:46;;;;;;;24.43;17.25;;;;;;;-0.44;69.59;98032.45;1693751;84;22402;-66
2021/01/13 12:26:36;;;;;;;22.27;14.93;;;;;;;-0.50;69.65;98036.40;1702089;82;21532;-66
2021/01/13 12:29:15;;;;;;;23.40;17.17;;;;;;;-0.55;69.81;98034.80;1691606;84;21110;-64
2021/01/13 12:31:46;;;;;;;23.42;17.00;;;;;;;-0.61;69.89;98041.33;1691789;84;21088;-67
2021/01/13 12:34:24;;;;;;;22.48;16.60;;;;;;;-0.61;70.14;98041.33;1690459;84;21528;-64
2021/01/13 12:36:54;;;;;;;20.57;15.40;;;;;;;-0.57;70.03;98036.11;1704226;82;21214;-64
2021/01/13 12:39:34;;;;;;;24.57;17.62;;;;;;;-0.57;69.96;98031.44;1704153;82;21098;-65
2021/01/13 12:42:04;;;;;;;31.45;18.77;;;;;;;-0.59;70.29;98028.91;1699860;82;21091;-66
2021/01/13 12:44:33;;;;;;;24.55;17.35;;;;;;;-0.63;70.50;98032.42;1703186;82;21912;-64
2021/01/13 12:47:03;;;;;;;26.20;18.37;;;;;;;-0.66;70.64;98029.08;1702871;82;21154;-66
2021/01/13 12:49:31;;;;;;;25.80;16.80;;;;;;;-0.73;70.39;98036.84;1703932;84;21492;-65
2021/01/13 12:52:06;;;;;;;25.00;17.80;;;;;;;-0.76;70.55;98036.06;1704637;84;21182;-64
2021/01/13 12:54:34;;;;;;;31.10;18.77;;;;;;;-0.83;70.71;98035.80;1704106;83;21075;-66
2021/01/13 12:57:03;;;;;;;31.20;20.57;;;;;;;-0.88;71.18;98032.48;1703285;84;21179;-66
2021/01/13 12:59:31;;;;;;;29.40;17.75;;;;;;;-0.84;71.69;98029.00;1703587;82;21059;-65
2021/01/13 13:01:58;;;;;;;31.70;20.15;;;;;;;-0.84;71.62;98030.28;1704221;83;21555;-63
2021/01/13 13:04:26;;;;;;;30.10;19.62;;;;;;;-0.88;71.88;98032.48;1699895;84;21115;-65
2021/01/13 13:06:54;;;;;;;32.88;21.77;;;;;;;-0.89;72.18;98039.29;1676110;84;21092;-64
2021/01/13 13:09:37;;;;;;;28.45;20.05;;;;;;;-0.88;72.41;98040.98;1675311;85;21780;-63
2021/01/13 13:12:33;;;;;;;37.65;22.37;;;;;;;-0.85;72.32;98038.81;1675297;85;21205;-63
2021/01/13 13:15:17;;;;;;;28.38;19.52;;;;;;;-0.85;72.20;98037.53;1643184;86;22223;-65
2021/01/13 13:17:58;;;;;;;28.87;19.75;;;;;;;-0.87;72.48;98030.33;1672816;85;21164;-65
2021/01/13 13:20:33;;;;;;;25.92;18.37;;;;;;;-0.87;72.55;98036.72;1644758;86;21523;-67
2021/01/13 13:23:00;;;;;;;23.55;17.92;;;;;;;-0.83;72.43;98035.36;1709833;82;21080;-64
2021/01/13 13:25:28;;;;;;;23.00;16.60;;;;;;;-0.83;72.22;98036.63;1726289;82;21138;-63
2021/01/13 13:27:56;;;;;;;28.02;18.40;;;;;;;-0.80;72.43;98028.89;1704694;84;21222;-64
2021/01/13 13:30:25;;;;;;;25.92;18.37;;;;;;;-0.76;72.28;98024.58;1744276;82;21048;-66
2021/01/13 13:32:53;;;;;;;25.80;18.92;;;;;;;-0.72;71.82;98022.38;1708684;83;21485;-65
2021/01/13 13:35:21;;;;;;;25.25;18.35;;;;;;;-0.78;71.98;98022.48;1739149;80;21434;-66
2021/01/13 13:37:51;;;;;;;26.70;18.62;;;;;;;-0.82;71.95;98030.66;1742397;82;21198;-66
2021/01/13 13:40:18;;;;;;;23.92;16.17;;;;;;;-0.88;72.34;98035.03;1742615;82;21532;-64
2021/01/13 13:42:47;;;;;;;21.37;16.62;;;;;;;-0.89;72.21;98045.67;1743721;82;21164;-65
2021/01/13 13:45:15;;;;;;;26.00;16.02;;;;;;;-0.90;72.37;98040.16;1744301;82;21067;-64
2021/01/13 13:47:43;;;;;;;27.77;20.23;;;;;;;-0.94;72.16;98042.36;1744370;82;21083;-64
2021/01/13 13:50:11;;;;;;;26.97;19.77;;;;;;;-0.96;72.37;98039.42;1744519;81;21048;-64
2021/01/13 13:52:39;;;;;;;25.40;16.85;;;;;;;-0.96;72.55;98040.27;1744444;82;21246;-65
2021/01/13 13:55:09;;;;;;;23.92;17.48;;;;;;;-0.95;72.56;98036.00;1744367;82;21127;-64
2021/01/13 13:57:37;;;;;;;26.65;16.70;;;;;;;-0.98;72.24;98034.34;1744423;81;21134;-64
2021/01/13 14:00:07;;;;;;;23.62;18.02;;;;;;;-1.00;72.08;98037.82;1744416;82;21170;-63
2021/01/13 14:02:36;;;;;;;20.32;15.23;;;;;;;-1.04;72.06;98033.20;1744342;82;21130;-64
2021/01/13 14:05:06;;;;;;;27.58;19.40;;;;;;;-1.07;71.64;98032.82;1744349;82;21450;-65
2021/01/13 14:07:33;;;;;;;26.87;18.25;;;;;;;-1.11;71.84;98029.06;1744433;82;21083;-63
2021/01/13 14:10:01;;;;;;;26.07;17.40;;;;;;;-1.14;71.87;98033.78;1744391;82;21059;-64
2021/01/13 14:12:29;;;;;;;26.52;19.37;;;;;;;-1.14;71.97;98032.95;1744365;81;21186;-63
2021/01/13 14:14:57;;;;;;;35.68;24.25;;;;;;;-1.16;72.17;98029.58;1744419;82;21122;-64
2021/01/13 14:17:30;;;;;;;41.15;26.90;;;;;;;-1.20;72.34;98022.88;1743832;82;21365;-63
2021/01/13 14:19:57;;;;;;;;;;;;;;;-1.23;72.50;98021.20;1747036;82;21551;-63
2021/01/13 14:22:25;;;;;;;29.80;19.95;;;;;;;-1.22;72.78;98025.88;1744143;82;20244;-63
2021/01/13 14:24:54;;;;;;;29.10;19.00;;;;;;;-1.20;72.90;98029.25;1743995;81;21076;-64
2021/01/13 14:27:22;;;;;;;28.60;20.02;;;;;;;-1.21;72.41;98022.46;1744441;82;21060;-63
2021/01/13 14:29:50;;;;;;;35.78;23.50;;;;;;;-1.24;72.66;98024.63;1744484;82;22345;-64
2021/01/13 14:32:18;;;;;;;27.50;19.23;;;;;;;-1.24;72.82;98028.45;1744323;82;21596;-64
2021/01/13 14:34:46;;;;;;;33.65;20.72;;;;;;;-1.22;72.87;98035.65;1744390;82;21190;-64
2021/01/13 14:37:14;;;;;;;32.25;20.90;;;;;;;-1.22;72.95;98035.65;1744328;82;22053;-64
2021/01/13 14:39:42;;;;;;;34.80;22.80;;;;;;;-1.22;72.87;98033.53;1744377;82;21068;-63
2021/01/13 14:42:13;;;;;;;30.60;20.60;;;;;;;-1.22;73.02;98023.33;1744287;82;21410;-64
2021/01/13 14:44:41;;;;;;;35.03;22.90;;;;;;;-1.23;73.24;98026.74;1736074;82;21088;-64
2021/01/13 14:47:13;;;;;;;36.40;23.38;;;;;;;-1.20;73.28;98031.80;1714783;83;21126;-64
2021/01/13 14:49:40;;;;;;;36.73;24.85;;;;;;;-1.15;73.36;98036.36;1741760;81;21063;-63
2021/01/13 14:52:09;;;;;;;41.23;25.57;;;;;;;-1.17;73.36;98031.28;1743927;82;21718;-64
2021/01/13 14:54:37;;;;;;;39.33;24.98;;;;;;;-1.23;73.55;98033.97;1743187;82;21244;-65
2021/01/13 14:57:08;;;;;;;37.17;23.80;;;;;;;-1.27;73.89;98037.86;1714934;82;21141;-64
2021/01/13 14:59:37;;;;;;;31.85;22.75;;;;;;;-1.33;74.15;98036.25;1743989;82;21166;-64
2021/01/13 15:02:05;;;;;;;33.53;22.32;;;;;;;-1.37;74.36;98040.98;1743897;82;21987;-65
2021/01/13 15:04:32;;;;;;;38.75;25.15;;;;;;;-1.42;74.67;98047.46;1743992;82;21166;-65
2021/01/13 15:07:01;;;;;;;32.65;21.73;;;;;;;-1.46;75.04;98046.26;1744042;82;21298;-64
2021/01/13 15:09:34;;;;;;;34.13;24.07;;;;;;;-1.47;74.86;98047.96;1744420;82;21172;-64
2021/01/13 15:12:04;;;;;;;30.88;21.30;;;;;;;-1.51;74.98;98043.77;1744410;81;21019;-65
2021/01/13 15:14:33;;;;;;;34.83;23.92;;;;;;;-1.51;75.21;98042.93;1744436;82;21087;-65
2021/01/13 15:17:01;;;;;;;31.45;21.17;;;;;;;-1.47;75.21;98046.69;1744458;82;21083;-64
2021/01/13 15:19:29;;;;;;;30.43;21.00;;;;;;;-1.43;75.15;98042.39;1744469;82;21373;-64
2021/01/13 15:21:59;;;;;;;34.78;21.40;;;;;;;-1.44;74.77;98035.17;1744324;82;21163;-64
2021/01/13 15:24:27;;;;;;;32.45;21.48;;;;;;;-1.44;74.92;98037.72;1744319;82;21146;-65
2021/01/13 15:26:54;;;;;;;32.05;21.12;;;;;;;-1.40;74.80;98033.41;1744173;82;21051;-64
2021/01/13 15:29:22;;;;;;;29.05;19.48;;;;;;;-1.35;74.50;98032.88;1744354;81;21088;-64
2021/01/13 15:31:49;;;;;;;30.35;20.85;;;;;;;-1.33;74.41;98036.69;1744254;82;23517;-65
2021/01/13 15:34:17;;;;;;;29.45;18.12;;;;;;;-1.31;74.15;98033.67;1742623;82;21222;-64
2021/01/13 15:36:47;;;;;;;31.77;19.67;;;;;;;-1.29;74.03;98030.67;1743977;82;21167;-63
2021/01/13 15:39:15;;;;;;;25.95;18.37;;;;;;;-1.29;73.96;98030.67;1743998;82;21120;-64
2021/01/13 15:41:43;;;;;;;28.85;20.08;;;;;;;-1.27;74.10;98031.48;1744077;82;21187;-65
2021/01/13 15:44:11;;;;;;;29.82;20.95;;;;;;;-1.27;73.98;98032.77;1744023;82;22269;-64
2021/01/13 15:46:43;;;;;;;33.45;21.25;;;;;;;-1.33;74.00;98032.42;1744140;82;21548;-64
2021/01/13 15:49:12;;;;;;;41.75;25.65;;;;;;;-1.37;74.15;98035.05;1744388;82;21088;-64
2021/01/13 15:51:44;;;;;;;40.70;26.45;;;;;;;-1.47;74.28;98035.22;1744410;81;21180;-62
2021/01/13 15:54:14;;;;;;;41.50;24.95;;;;;;;-1.50;74.65;98031.44;1744652;82;21048;-65
